Impacts TAF Board INFO
FOR SITUATIONAL AWARENESS. NOT TO BE USED FOR FLIGHT PLANNING PURPOSES.
IDs:

KLAX - Los Angeles Intl, CA, US

Issued at 2341 UTC 22 Jun 2018
Updated at 0013 UTC 23 Jun 2018
Potential Impact None Slight Moderate High
Time2353Z 23/01Z 23/02Z 23/03Z 23/04Z 23/05Z 23/06Z 23/07Z 23/08Z 23/09Z 23/10Z 23/11Z 23/12Z 23/13Z>>
Type OBS PRVL PRVL PRVL PRVL PRVL PRVL PRVL PRVL PRVL PRVL PRVL PRVL PRVL
VIS 10 >6 >6 >6 >6 >6 >6 >6 >6 >6 4 4 4 4
CIG 10 10 10 9 9 9 9 9 9 9 7 7 7 7
Cover OVC OVC OVC OVC OVC OVC OVC OVC OVC OVC OVC OVC OVC OVC
FltCat MVFR MVFR MVFR IFR IFR IFR IFR IFR IFR IFR IFR IFR IFR IFR
WX -- -- -- -- -- -- -- -- -- -- BR BR BR BR
WDir 260 250 250 260 260 260 260 260 260 260 VRB VRB VRB VRB
WSpd 11 12 12 5 5 5 5 5 5 5 3 3 3 3
WGst -- -- -- -- -- -- -- -- -- -- -- -- -- --

Raw TAF
KLAX 222341Z 2300/2406 25012KT P6SM OVC010
  FM230300 26005KT P6SM OVC009
  FM231000 VRB03KT 4SM BR OVC007
  FM231400 VRB03KT 3SM BR OVC010
  FM231700 24006KT P6SM OVC012
  FM232000 25011KT P6SM SKC
  FM240300 26007KT P6SM BKN012


Raw METAR
KLAX 222353Z 26011KT 10SM OVC010 19/16 A2981 RMK AO2 SLP094 T01940156 10228 20189 56018 $
KLAX 222253Z 25011KT 10SM BKN011 20/16 A2983 RMK AO2 SLP100 T02000156
KLAX 222153Z 25010KT 10SM BKN011 21/16 A2985 RMK AO2 SLP107 T02060161

METAR Board
Radar Display
Forecast Discussion

FOR SITUATIONAL AWARENESS. NOT TO BE USED FOR FLIGHT PLANNING PURPOSES.